Time;durP1;ratioP1;P1;durP2;ratioP2;P2;SDS_P1;SDS_P2;PMS_P1;PMS_P2;Temp;Humidity;BMP_temperature;BMP_pressure;BME280_temperature;BME280_humidity;BME280_pressure;Samples;Min_cycle;Max_cycle;Signal;HPM_P1;HPM_P2
2023/11/16 00:00:17;;;;;;;10.68;2.80;;;7.60;99.90;;;;;;5076855;28;20032;-38
2023/11/16 00:02:44;;;;;;;9.32;2.50;;;7.60;99.90;;;;;;5078899;28;20040;-44
2023/11/16 00:05:13;;;;;;;7.15;2.70;;;7.60;99.90;;;;;;5073758;28;20040;-40
2023/11/16 00:07:45;;;;;;;6.68;2.83;;;7.60;99.90;;;;;;5070972;28;20049;-39
2023/11/16 00:10:16;;;;;;;6.07;2.60;;;7.60;99.90;;;;;;5075194;28;20055;-42
2023/11/16 00:12:44;;;;;;;10.65;2.70;;;7.60;99.90;;;;;;5052484;28;20503;-42
2023/11/16 00:15:11;;;;;;;5.85;2.08;;;7.50;99.90;;;;;;5072262;28;20041;-40
2023/11/16 00:17:39;;;;;;;6.97;2.40;;;7.50;99.90;;;;;;5068496;28;20029;-43
2023/11/16 00:20:07;;;;;;;13.07;3.33;;;7.50;99.90;;;;;;5067694;28;20048;-41
2023/11/16 00:22:34;;;;;;;11.30;2.55;;;7.50;99.90;;;;;;5068006;28;20044;-39
2023/11/16 00:25:06;;;;;;;6.75;2.45;;;7.50;99.90;;;;;;5066810;28;20041;-40
2023/11/16 00:27:34;;;;;;;4.95;2.08;;;7.50;99.90;;;;;;5045649;28;20063;-42
2023/11/16 00:30:03;;;;;;;6.65;2.35;;;7.50;99.90;;;;;;5061020;28;20036;-38
2023/11/16 00:32:32;;;;;;;11.15;2.60;;;7.50;99.90;;;;;;5080767;28;20055;-46
2023/11/16 00:34:59;;;;;;;11.40;2.63;;;7.60;99.90;;;;;;5085575;28;20093;-40
2023/11/16 00:37:27;;;;;;;5.75;1.95;;;7.60;99.90;;;;;;5070261;28;20045;-40
2023/11/16 00:39:57;;;;;;;6.63;2.35;;;7.70;99.90;;;;;;5066186;28;20548;-40
2023/11/16 00:42:24;;;;;;;5.35;2.40;;;7.70;99.90;;;;;;5070335;28;20056;-38
2023/11/16 00:44:52;;;;;;;8.05;2.22;;;7.80;99.90;;;;;;5065198;28;20044;-37
2023/11/16 00:47:19;;;;;;;5.88;2.00;;;7.80;99.90;;;;;;5049659;28;20437;-37
2023/11/16 00:49:47;;;;;;;5.05;1.95;;;7.80;99.90;;;;;;5068673;28;20041;-40
2023/11/16 00:52:15;;;;;;;6.70;1.80;;;7.90;99.90;;;;;;5067124;28;20036;-42
2023/11/16 00:54:43;;;;;;;9.65;1.95;;;7.90;99.90;;;;;;5051592;28;20045;-40
2023/11/16 00:57:10;;;;;;;5.38;1.90;;;7.90;99.90;;;;;;5066726;28;20049;-40
2023/11/16 00:59:37;;;;;;;7.93;2.50;;;7.90;99.90;;;;;;5066925;28;20068;-40
2023/11/16 01:02:05;;;;;;;5.88;1.88;;;7.90;99.90;;;;;;5064110;28;20075;-40
2023/11/16 01:04:33;;;;;;;6.43;2.00;;;7.80;99.90;;;;;;5049475;28;20062;-39
2023/11/16 01:07:00;;;;;;;7.78;2.28;;;7.80;99.90;;;;;;5073395;28;20163;-42
2023/11/16 01:09:35;;;;;;;7.55;2.00;;;7.70;99.90;;;;;;5075551;28;20098;-41
2023/11/16 01:12:03;;;;;;;8.30;2.47;;;7.80;99.90;;;;;;5077102;28;20060;-38
2023/11/16 01:14:31;;;;;;;8.88;2.30;;;7.80;99.90;;;;;;5063454;28;20063;-40
2023/11/16 01:17:01;;;;;;;7.03;2.10;;;7.80;99.90;;;;;;5065777;28;20413;-43
2023/11/16 01:19:28;;;;;;;11.35;2.67;;;7.80;99.90;;;;;;5054923;28;20047;-39
2023/11/16 01:21:57;;;;;;;7.72;2.00;;;7.90;99.90;;;;;;5046457;28;20036;-40
2023/11/16 01:24:24;;;;;;;5.40;2.30;;;7.80;99.90;;;;;;5065493;28;20040;-42
2023/11/16 01:26:59;;;;;;;11.75;3.00;;;7.80;99.90;;;;;;5066107;28;20033;-41
2023/11/16 01:29:27;;;;;;;7.43;2.20;;;7.80;99.90;;;;;;5069162;28;20037;-40
2023/11/16 01:32:02;;;;;;;7.88;2.50;;;7.90;99.90;;;;;;5065016;28;20186;-44
2023/11/16 01:34:33;;;;;;;8.23;2.50;;;7.80;99.90;;;;;;5077690;28;20095;-42
2023/11/16 01:37:03;;;;;;;9.50;2.08;;;7.80;99.90;;;;;;5078226;28;20056;-46
2023/11/16 01:39:31;;;;;;;7.10;2.65;;;7.80;99.90;;;;;;5077986;28;20064;-41
2023/11/16 01:41:58;;;;;;;8.32;2.30;;;7.70;99.90;;;;;;5075371;28;20040;-38
2023/11/16 01:44:25;;;;;;;7.60;2.85;;;7.80;99.90;;;;;;5072884;28;20048;-41
2023/11/16 01:46:52;;;;;;;9.00;2.58;;;7.80;99.90;;;;;;5070474;28;20066;-39
2023/11/16 01:49:20;;;;;;;8.95;2.88;;;7.80;99.90;;;;;;5068437;28;20036;-39
2023/11/16 01:51:53;;;;;;;6.70;2.20;;;7.80;99.90;;;;;;5066383;28;20037;-39
2023/11/16 01:54:21;;;;;;;6.07;2.15;;;7.70;99.90;;;;;;5067641;28;20347;-38
2023/11/16 01:56:50;;;;;;;7.63;2.15;;;7.70;99.90;;;;;;5044474;28;20090;-41
2023/11/16 01:59:19;;;;;;;6.35;1.92;;;7.80;99.90;;;;;;5043998;28;20410;-41
2023/11/16 02:01:47;;;;;;;9.68;2.10;;;7.80;99.90;;;;;;5060148;28;20037;-41
2023/11/16 02:04:15;;;;;;;5.50;2.10;;;7.70;99.90;;;;;;5065709;28;20037;-38
2023/11/16 02:06:43;;;;;;;7.18;2.10;;;7.70;99.90;;;;;;5050451;28;20055;-43
2023/11/16 02:09:11;;;;;;;7.68;2.05;;;7.70;99.90;;;;;;5034447;28;20060;-39
2023/11/16 02:11:38;;;;;;;5.63;2.00;;;7.80;99.90;;;;;;5076065;28;20585;-38
2023/11/16 02:14:05;;;;;;;7.63;2.20;;;7.70;99.90;;;;;;5043775;28;20041;-41
2023/11/16 02:16:32;;;;;;;6.28;2.10;;;7.70;99.90;;;;;;5063662;28;20098;-39
2023/11/16 02:19:20;;;;;;;8.85;2.22;;;7.70;99.90;;;;;;5065697;28;20037;-40
2023/11/16 02:21:48;;;;;;;5.75;2.30;;;7.70;99.90;;;;;;5044242;28;20045;-41
2023/11/16 02:24:14;;;;;;;7.63;2.40;;;7.60;99.90;;;;;;5065666;28;20041;-41
2023/11/16 02:26:42;;;;;;;5.70;2.25;;;7.50;99.90;;;;;;5066567;28;20075;-43
2023/11/16 02:29:09;;;;;;;6.40;2.10;;;7.60;99.90;;;;;;5066209;28;20058;-41
2023/11/16 02:31:36;;;;;;;6.90;2.20;;;7.50;99.90;;;;;;5073982;28;20098;-38
2023/11/16 02:34:05;;;;;;;7.68;2.22;;;7.50;99.90;;;;;;5060143;28;20032;-42
2023/11/16 02:36:33;;;;;;;7.10;2.42;;;7.50;99.90;;;;;;5066158;28;20044;-40
2023/11/16 02:39:01;;;;;;;5.53;2.10;;;7.50;99.90;;;;;;5073575;28;20045;-38
2023/11/16 02:41:29;;;;;;;4.78;2.10;;;7.60;99.90;;;;;;5080238;28;20048;-42
2023/11/16 02:43:56;;;;;;;7.15;2.60;;;7.50;99.90;;;;;;5061478;28;20051;-41
2023/11/16 02:46:23;;;;;;;9.48;2.55;;;7.50;99.90;;;;;;5078612;28;20779;-39
2023/11/16 02:48:50;;;;;;;7.65;2.92;;;7.50;99.90;;;;;;5074345;28;20048;-41
2023/11/16 02:51:17;;;;;;;7.40;2.60;;;7.50;99.90;;;;;;5072231;28;20106;-42
2023/11/16 02:53:44;;;;;;;11.93;3.55;;;7.50;99.90;;;;;;5068268;28;20036;-40
2023/11/16 02:56:13;;;;;;;7.03;2.67;;;7.50;99.90;;;;;;5075757;28;20105;-41
2023/11/16 02:58:43;;;;;;;5.97;2.88;;;7.60;99.90;;;;;;5068633;28;20351;-41
2023/11/16 03:01:12;;;;;;;10.15;3.35;;;7.60;99.90;;;;;;5064594;28;20060;-42
2023/11/16 03:03:40;;;;;;;8.63;2.70;;;7.50;99.90;;;;;;5072205;28;20049;-42
2023/11/16 03:06:08;;;;;;;8.27;3.30;;;7.60;99.90;;;;;;5079240;28;20078;-48
2023/11/16 03:08:36;;;;;;;6.63;3.08;;;7.60;99.90;;;;;;5072635;28;20051;-39
2023/11/16 03:11:05;;;;;;;7.20;2.92;;;7.60;99.90;;;;;;5079581;28;20056;-39
2023/11/16 03:13:32;;;;;;;6.88;2.92;;;7.70;99.90;;;;;;5046726;28;20053;-41
2023/11/16 03:16:04;;;;;;;8.23;2.85;;;7.70;99.90;;;;;;5068369;28;20044;-42
2023/11/16 03:18:31;;;;;;;6.97;3.08;;;7.70;99.90;;;;;;5050737;28;20033;-39
2023/11/16 03:20:58;;;;;;;7.40;2.85;;;7.70;99.90;;;;;;5068003;28;20122;-42
2023/11/16 03:23:25;;;;;;;7.88;3.08;;;7.70;99.90;;;;;;5069424;28;20131;-40
2023/11/16 03:25:54;;;;;;;8.43;3.20;;;7.70;99.90;;;;;;5064232;28;20056;-38
2023/11/16 03:28:21;;;;;;;5.07;2.70;;;7.70;99.90;;;;;;5070106;28;20044;-40
2023/11/16 03:30:49;;;;;;;7.90;2.85;;;7.70;99.90;;;;;;5068734;28;20049;-40
2023/11/16 03:33:16;;;;;;;12.68;3.63;;;7.70;99.90;;;;;;5053509;28;20681;-38
2023/11/16 03:35:48;;;;;;;10.85;3.17;;;7.70;99.90;;;;;;5052310;28;20056;-38
2023/11/16 03:38:18;;;;;;;8.00;3.10;;;7.70;99.90;;;;;;5047120;28;20055;-41
2023/11/16 03:40:45;;;;;;;9.88;3.30;;;7.70;99.90;;;;;;5065169;28;20501;-40
2023/11/16 03:43:14;;;;;;;10.40;2.97;;;7.80;99.90;;;;;;5068359;28;20075;-41
2023/11/16 03:45:41;;;;;;;9.10;3.00;;;7.80;99.90;;;;;;5075798;28;20048;-41
2023/11/16 03:48:11;;;;;;;9.15;3.10;;;7.80;99.90;;;;;;5070160;28;20104;-39
2023/11/16 03:50:42;;;;;;;9.85;2.78;;;7.80;99.90;;;;;;5071829;28;20084;-42
2023/11/16 03:53:09;;;;;;;6.75;2.90;;;7.80;99.90;;;;;;5071313;28;20127;-42
2023/11/16 03:55:36;;;;;;;6.95;3.15;;;7.70;99.90;;;;;;5066443;28;20122;-40
2023/11/16 03:58:03;;;;;;;8.25;2.92;;;7.70;99.90;;;;;;5067060;28;20048;-38
2023/11/16 04:00:31;;;;;;;4.55;2.67;;;7.80;99.90;;;;;;5068443;28;20501;-42
2023/11/16 04:02:59;;;;;;;5.97;2.80;;;7.80;99.90;;;;;;5075374;28;20051;-43
2023/11/16 04:05:26;;;;;;;6.45;2.65;;;7.80;99.90;;;;;;5060737;28;20044;-40
2023/11/16 04:07:55;;;;;;;6.18;2.60;;;7.80;99.90;;;;;;5073273;28;20049;-42
2023/11/16 04:10:22;;;;;;;8.68;3.50;;;7.80;99.90;;;;;;5067767;28;20040;-42
2023/11/16 04:12:49;;;;;;;8.80;2.80;;;7.70;99.90;;;;;;5068823;28;20044;-41
2023/11/16 04:15:16;;;;;;;6.43;3.10;;;7.70;99.90;;;;;;5067317;28;20044;-40
2023/11/16 04:17:44;;;;;;;6.07;2.78;;;7.70;99.90;;;;;;5067276;28;20446;-37
2023/11/16 04:20:12;;;;;;;7.60;2.80;;;7.60;99.90;;;;;;5066618;28;20044;-38
2023/11/16 04:22:40;;;;;;;7.07;2.85;;;7.50;99.90;;;;;;5053094;28;20056;-37
2023/11/16 04:25:18;;;;;;;7.50;3.22;;;7.50;99.90;;;;;;5069901;28;20479;-38
2023/11/16 04:27:48;;;;;;;11.65;3.05;;;7.40;99.90;;;;;;5054903;28;20464;-39
2023/11/16 04:30:16;;;;;;;7.95;2.78;;;7.40;99.90;;;;;;5061488;28;20063;-42
2023/11/16 04:32:45;;;;;;;7.85;2.92;;;7.30;99.90;;;;;;5063646;28;20109;-39
2023/11/16 04:35:15;;;;;;;7.40;3.13;;;7.20;99.90;;;;;;5081844;28;20412;-42
2023/11/16 04:37:42;;;;;;;9.80;3.30;;;7.10;99.90;;;;;;5074598;28;20033;-39
2023/11/16 04:40:10;;;;;;;8.65;2.80;;;7.10;99.90;;;;;;5074196;28;20028;-41
2023/11/16 04:42:39;;;;;;;9.18;2.70;;;7.10;99.90;;;;;;5073184;28;20107;-42
2023/11/16 04:45:07;;;;;;;5.80;2.60;;;7.00;99.90;;;;;;5073686;28;20428;-42
2023/11/16 04:47:37;;;;;;;6.53;2.70;;;7.00;99.90;;;;;;5073103;28;20044;-43
2023/11/16 04:50:06;;;;;;;7.45;3.13;;;7.00;99.90;;;;;;5056180;28;20466;-42
2023/11/16 04:52:34;;;;;;;6.82;2.72;;;6.90;99.90;;;;;;5071934;28;20040;-38
2023/11/16 04:55:01;;;;;;;8.45;2.72;;;7.00;99.90;;;;;;5081833;28;20135;-39
2023/11/16 04:57:28;;;;;;;6.68;2.80;;;7.00;99.90;;;;;;5082069;28;20036;-38
2023/11/16 04:59:55;;;;;;;9.13;2.95;;;7.00;99.90;;;;;;5076900;28;20461;-39
2023/11/16 05:02:22;;;;;;;6.55;2.47;;;6.90;99.90;;;;;;5084574;28;20040;-41
2023/11/16 05:04:51;;;;;;;7.05;2.65;;;6.90;99.90;;;;;;5082539;28;20044;-41
2023/11/16 05:07:18;;;;;;;7.45;2.13;;;6.80;99.90;;;;;;5084891;28;20032;-40
2023/11/16 05:09:45;;;;;;;9.07;2.30;;;6.80;99.90;;;;;;5077942;28;20048;-42
2023/11/16 05:12:12;;;;;;;4.45;2.17;;;6.80;99.90;;;;;;5067125;28;20067;-41
2023/11/16 05:14:39;;;;;;;5.03;2.10;;;6.80;99.90;;;;;;5065542;28;20040;-40
2023/11/16 05:17:06;;;;;;;7.57;2.13;;;6.80;99.90;;;;;;5070253;28;20037;-41
2023/11/16 05:19:33;;;;;;;8.73;2.28;;;6.80;99.90;;;;;;5070974;28;20163;-39
2023/11/16 05:22:01;;;;;;;8.55;2.03;;;6.80;99.90;;;;;;5069691;28;20032;-38
2023/11/16 05:24:29;;;;;;;8.70;3.00;;;6.70;99.90;;;;;;5053651;28;20055;-41
2023/11/16 05:27:02;;;;;;;8.93;2.28;;;6.70;99.90;;;;;;5073521;28;20048;-40
2023/11/16 05:29:29;;;;;;;6.68;2.20;;;6.70;99.90;;;;;;5078441;28;20072;-40
2023/11/16 05:31:57;;;;;;;6.10;2.05;;;6.60;99.90;;;;;;5081836;28;20044;-41
2023/11/16 05:34:27;;;;;;;3.50;1.70;;;6.60;99.90;;;;;;5073772;28;20058;-39
2023/11/16 05:36:55;;;;;;;10.55;3.05;;;6.50;99.90;;;;;;5070745;28;20521;-37
2023/11/16 05:39:23;;;;;;;5.28;1.95;;;6.50;99.90;;;;;;5070614;28;20070;-41
2023/11/16 05:41:50;;;;;;;5.07;2.15;;;6.50;99.90;;;;;;5070736;28;20045;-42
2023/11/16 05:44:19;;;;;;;8.00;2.38;;;6.40;99.90;;;;;;5069448;28;20048;-41
2023/11/16 05:46:47;;;;;;;8.30;2.90;;;6.50;99.90;;;;;;5066937;28;20056;-39
2023/11/16 05:49:17;;;;;;;8.77;2.70;;;6.50;99.90;;;;;;5065970;28;20106;-41
2023/11/16 05:51:44;;;;;;;9.95;2.40;;;6.40;99.90;;;;;;5071007;28;20040;-42
2023/11/16 05:54:12;;;;;;;7.80;2.67;;;6.40;99.90;;;;;;5052337;28;20075;-37
2023/11/16 05:56:44;;;;;;;7.78;2.40;;;6.40;99.90;;;;;;5066292;28;20045;-41
2023/11/16 05:59:11;;;;;;;;;;;6.50;99.90;;;;;;5069227;28;20505;-41
2023/11/16 06:01:38;;;;;;;7.10;2.47;;;6.50;99.90;;;;;;5065812;28;19932;-40
2023/11/16 06:04:06;;;;;;;5.50;2.40;;;6.50;99.90;;;;;;5044857;28;20044;-40
2023/11/16 06:06:34;;;;;;;7.60;3.08;;;6.40;99.90;;;;;;5065216;28;20142;-38
2023/11/16 06:09:02;;;;;;;5.30;2.30;;;6.40;99.90;;;;;;5067381;28;20044;-37
2023/11/16 06:11:30;;;;;;;6.60;2.25;;;6.40;99.90;;;;;;5071263;28;20048;-39
2023/11/16 06:13:59;;;;;;;5.68;2.70;;;6.30;99.90;;;;;;5066888;28;20495;-39
2023/11/16 06:16:27;;;;;;;7.68;3.20;;;6.30;99.90;;;;;;5064350;28;20142;-39
2023/11/16 06:18:55;;;;;;;7.35;3.00;;;6.30;99.90;;;;;;5069642;28;20420;-41
2023/11/16 06:21:22;;;;;;;6.80;2.45;;;6.30;99.90;;;;;;5062458;28;20511;-38
2023/11/16 06:23:49;;;;;;;17.23;3.10;;;6.30;99.90;;;;;;5070174;28;20040;-41
2023/11/16 06:26:16;;;;;;;6.90;2.58;;;6.30;99.90;;;;;;5070940;28;20052;-41
2023/11/16 06:28:43;;;;;;;8.52;2.85;;;6.40;99.90;;;;;;5064721;28;20048;-40
2023/11/16 06:31:11;;;;;;;5.75;2.60;;;6.40;99.90;;;;;;5072014;28;20044;-40
2023/11/16 06:33:38;;;;;;;7.28;2.75;;;6.40;99.90;;;;;;5070902;28;20044;-40
2023/11/16 06:36:05;;;;;;;9.73;2.78;;;6.40;99.90;;;;;;5075569;28;20053;-38
2023/11/16 06:38:32;;;;;;;6.10;2.50;;;6.40;99.90;;;;;;5077563;28;20078;-42
2023/11/16 06:40:59;;;;;;;8.88;3.08;;;6.40;99.90;;;;;;5071235;28;20048;-43
2023/11/16 06:43:27;;;;;;;12.23;3.97;;;6.50;99.90;;;;;;5052156;28;20033;-39
2023/11/16 06:45:58;;;;;;;7.20;2.60;;;6.50;99.90;;;;;;5068274;28;20049;-39
2023/11/16 06:48:26;;;;;;;5.43;2.40;;;6.50;99.90;;;;;;5068341;28;20436;-44
2023/11/16 06:50:54;;;;;;;10.55;2.88;;;6.60;99.90;;;;;;5071064;28;20075;-41
2023/11/16 06:53:22;;;;;;;7.07;3.03;;;6.60;99.90;;;;;;5074203;28;20335;-39
2023/11/16 06:55:52;;;;;;;8.65;2.60;;;6.60;99.90;;;;;;5074341;28;20047;-40
2023/11/16 06:58:22;;;;;;;7.78;2.67;;;6.70;99.90;;;;;;5069873;28;20420;-39
2023/11/16 07:00:51;;;;;;;7.90;2.40;;;6.70;99.90;;;;;;5070818;28;20044;-39
2023/11/16 07:03:19;;;;;;;10.75;2.40;;;6.70;99.90;;;;;;5060858;28;20043;-40
2023/11/16 07:05:46;;;;;;;6.05;2.50;;;6.70;99.90;;;;;;5063175;28;20057;-40
2023/11/16 07:08:15;;;;;;;5.15;2.38;;;6.80;99.90;;;;;;5064279;28;20050;-42
2023/11/16 07:10:42;;;;;;;6.15;2.65;;;6.80;99.90;;;;;;5062497;28;20045;-41
2023/11/16 07:13:14;;;;;;;5.05;2.42;;;6.80;99.90;;;;;;5065891;28;20488;-37
2023/11/16 07:15:45;;;;;;;6.88;2.35;;;6.80;99.90;;;;;;5063326;28;20052;-42
2023/11/16 07:18:12;;;;;;;6.95;2.60;;;6.90;99.90;;;;;;5064343;28;20377;-39
2023/11/16 07:20:40;;;;;;;10.32;2.70;;;6.90;99.90;;;;;;5079811;28;20385;-43
2023/11/16 07:23:08;;;;;;;10.25;3.03;;;6.90;99.90;;;;;;5069969;28;20047;-39
2023/11/16 07:25:37;;;;;;;8.50;2.80;;;6.90;99.90;;;;;;5069129;28;20051;-40
2023/11/16 07:28:05;;;;;;;7.72;2.67;;;6.90;99.90;;;;;;5066719;28;20106;-38
2023/11/16 07:30:35;;;;;;;6.70;2.67;;;6.90;99.90;;;;;;5077402;28;20040;-37
2023/11/16 07:33:05;;;;;;;5.57;2.50;;;7.00;99.90;;;;;;5081773;28;20076;-41
2023/11/16 07:35:35;;;;;;;5.82;2.80;;;7.10;99.90;;;;;;5080511;28;20666;-38
2023/11/16 07:38:04;;;;;;;10.10;3.00;;;7.10;99.90;;;;;;5070691;28;20060;-37
2023/11/16 07:40:30;;;;;;;9.05;3.13;;;7.20;99.90;;;;;;5067400;28;20047;-37
2023/11/16 07:42:59;;;;;;;10.70;3.03;;;7.20;99.90;;;;;;5066052;28;20041;-40
2023/11/16 07:45:27;;;;;;;11.52;2.67;;;7.30;99.90;;;;;;5065284;28;20063;-39
2023/11/16 07:47:59;;;;;;;8.95;3.10;;;7.40;99.90;;;;;;5062754;28;20502;-41
2023/11/16 07:50:31;;;;;;;7.30;2.97;;;7.40;99.90;;;;;;5065173;28;20067;-41
2023/11/16 07:53:00;;;;;;;12.13;3.47;;;7.50;99.90;;;;;;5065703;28;20112;-39
2023/11/16 07:55:28;;;;;;;7.68;2.95;;;7.50;99.90;;;;;;5063580;28;20080;-40
2023/11/16 07:57:56;;;;;;;9.30;3.53;;;7.50;99.90;;;;;;5065472;28;20047;-40
2023/11/16 08:00:31;;;;;;;6.47;2.65;;;7.50;99.90;;;;;;5068005;28;20048;-39
2023/11/16 08:05:46;;;;;;;6.75;2.60;;;7.60;99.90;;;;;;5073175;28;20130;-36
2023/11/16 08:08:15;;;;;;;13.70;3.20;;;7.70;99.90;;;;;;5070711;28;20051;-39
2023/11/16 08:10:43;;;;;;;8.48;2.90;;;7.80;99.90;;;;;;5073743;28;20045;-40
2023/11/16 08:13:11;;;;;;;7.78;3.08;;;7.80;99.90;;;;;;5075063;28;20052;-37
2023/11/16 08:15:40;;;;;;;8.15;2.97;;;7.90;99.90;;;;;;5072397;28;20096;-38
2023/11/16 08:18:10;;;;;;;11.02;3.92;;;8.00;99.90;;;;;;5073500;28;20501;-40
2023/11/16 08:20:37;;;;;;;9.85;3.50;;;8.00;99.90;;;;;;5063601;28;20461;-39
2023/11/16 08:23:05;;;;;;;7.47;2.92;;;8.10;99.90;;;;;;5066843;28;20385;-40
2023/11/16 08:25:33;;;;;;;6.60;3.30;;;8.10;99.90;;;;;;5070663;28;20056;-38
2023/11/16 08:28:01;;;;;;;9.63;3.00;;;8.20;99.90;;;;;;5045171;28;20436;-38
2023/11/16 08:30:28;;;;;;;5.95;2.72;;;8.40;99.90;;;;;;5070615;28;20114;-38
2023/11/16 08:32:56;;;;;;;7.25;2.78;;;8.40;99.90;;;;;;5075235;28;20454;-40
2023/11/16 08:35:23;;;;;;;8.10;3.13;;;8.60;99.90;;;;;;5070892;28;20048;-38
2023/11/16 08:37:53;;;;;;;9.40;3.65;;;8.60;99.90;;;;;;5073495;28;20040;-39
2023/11/16 08:40:23;;;;;;;8.05;2.88;;;8.80;99.90;;;;;;5072160;28;20040;-40
2023/11/16 08:42:51;;;;;;;8.20;2.78;;;8.80;99.90;;;;;;5072693;28;20105;-40
2023/11/16 08:45:20;;;;;;;9.15;3.10;;;9.10;99.90;;;;;;5074047;28;20097;-43
2023/11/16 08:47:51;;;;;;;5.93;2.75;;;9.20;99.90;;;;;;5068255;28;20048;-39
2023/11/16 08:50:20;;;;;;;7.35;2.67;;;9.40;99.90;;;;;;5070936;28;20048;-38
2023/11/16 08:52:49;;;;;;;8.65;2.92;;;9.50;99.90;;;;;;5065358;28;20513;-37
2023/11/16 08:55:21;;;;;;;8.23;2.88;;;9.40;99.90;;;;;;5070579;28;20053;-39
2023/11/16 08:57:53;;;;;;;11.40;4.87;;;9.50;99.90;;;;;;5064951;28;20447;-37
2023/11/16 09:00:37;;;;;;;10.18;2.78;;;9.50;99.90;;;;;;5066815;28;20440;-40
2023/11/16 09:03:08;;;;;;;9.52;2.88;;;9.50;99.90;;;;;;5050352;28;20047;-37
2023/11/16 09:05:40;;;;;;;9.68;2.95;;;9.50;99.90;;;;;;5069432;28;20055;-40
2023/11/16 09:08:11;;;;;;;8.80;3.00;;;9.50;99.90;;;;;;5073407;28;20048;-39
2023/11/16 09:10:41;;;;;;;6.78;3.08;;;9.40;99.90;;;;;;5070153;28;20052;-36
2023/11/16 09:13:08;;;;;;;8.60;3.00;;;9.60;99.90;;;;;;5073895;28;20052;-38
2023/11/16 09:15:35;;;;;;;7.70;2.50;;;9.70;99.90;;;;;;5069161;28;20083;-42
2023/11/16 09:18:04;;;;;;;13.45;3.80;;;9.80;99.90;;;;;;5071240;28;20032;-38
2023/11/16 09:20:33;;;;;;;6.95;3.17;;;10.00;99.90;;;;;;5072484;28;20040;-37
2023/11/16 09:23:01;;;;;;;7.13;2.83;;;10.00;99.90;;;;;;5076699;28;20048;-41
2023/11/16 09:25:29;;;;;;;8.82;3.00;;;10.10;99.90;;;;;;5084721;28;20101;-37
2023/11/16 09:27:58;;;;;;;9.40;5.13;;;10.10;99.90;;;;;;5072840;28;20048;-38
2023/11/16 09:30:28;;;;;;;8.48;3.20;;;10.20;99.90;;;;;;5072095;28;20476;-40
2023/11/16 09:32:58;;;;;;;6.80;2.85;;;10.00;99.90;;;;;;5070913;28;20051;-39
2023/11/16 09:35:27;;;;;;;7.70;3.08;;;10.10;99.90;;;;;;5070162;28;20056;-40
2023/11/16 09:37:55;;;;;;;8.45;2.78;;;10.10;99.90;;;;;;5065229;28;20032;-40
2023/11/16 09:40:28;;;;;;;12.98;3.20;;;10.20;99.90;;;;;;5071113;28;20088;-41
2023/11/16 09:42:58;;;;;;;6.97;3.03;;;10.10;99.90;;;;;;5071291;28;20064;-39
2023/11/16 09:45:31;;;;;;;7.05;2.70;;;10.10;99.90;;;;;;5079283;28;20037;-41
2023/11/16 09:48:10;;;;;;;10.23;3.30;;;10.10;99.90;;;;;;5085482;28;20049;-40
2023/11/16 09:50:44;;;;;;;10.48;2.80;;;10.10;99.90;;;;;;5086430;28;20044;-41
2023/11/16 09:53:16;;;;;;;9.00;2.97;;;10.40;99.90;;;;;;5078776;28;20134;-39
2023/11/16 09:56:04;;;;;;;7.82;2.90;;;10.60;99.90;;;;;;5071261;28;20353;-38
2023/11/16 09:58:36;;;;;;;7.80;2.55;;;10.70;99.90;;;;;;5063544;28;20075;-38
2023/11/16 10:01:10;;;;;;;5.05;2.53;;;11.00;99.90;;;;;;5069611;28;20040;-38
2023/11/16 10:03:40;;;;;;;12.23;3.67;;;11.20;99.90;;;;;;5066747;28;20072;-38
2023/11/16 10:06:09;;;;;;;9.35;3.03;;;10.90;99.90;;;;;;5069299;28;20055;-39
2023/11/16 10:08:40;;;;;;;7.47;3.10;;;10.50;99.90;;;;;;5063568;28;20040;-38
2023/11/16 10:11:07;;;;;;;7.93;3.00;;;10.50;99.90;;;;;;5051614;28;20059;-42
2023/11/16 10:13:36;;;;;;;12.10;3.10;;;10.40;99.90;;;;;;5070007;28;20307;-39
2023/11/16 10:16:11;;;;;;;6.28;2.60;;;10.40;99.90;;;;;;5071425;28;20098;-41
2023/11/16 10:18:38;;;;;;;7.68;2.60;;;10.40;99.90;;;;;;5068050;28;20531;-38
2023/11/16 10:21:08;;;;;;;8.15;3.05;;;10.60;99.90;;;;;;5066854;28;20033;-39
2023/11/16 10:23:35;;;;;;;7.97;3.13;;;10.60;99.90;;;;;;5048847;28;20047;-41
2023/11/16 10:26:05;;;;;;;10.48;3.13;;;10.50;99.90;;;;;;5075990;28;20044;-39
2023/11/16 10:28:34;;;;;;;10.88;3.80;;;10.50;99.90;;;;;;5079351;28;20320;-39
2023/11/16 10:31:01;;;;;;;8.10;3.33;;;10.80;99.90;;;;;;5072009;28;20539;-38
2023/11/16 10:33:29;;;;;;;5.25;2.80;;;10.70;99.90;;;;;;5071345;28;20445;-38
2023/11/16 10:36:00;;;;;;;8.75;3.28;;;10.70;99.90;;;;;;5069650;28;20041;-38
2023/11/16 10:38:27;;;;;;;8.07;3.22;;;10.70;99.90;;;;;;5069456;28;20036;-38
2023/11/16 10:40:55;;;;;;;7.90;3.10;;;10.90;99.90;;;;;;5077629;28;20040;-39
2023/11/16 10:43:27;;;;;;;7.82;3.05;;;10.80;99.90;;;;;;5073049;28;20123;-38
2023/11/16 10:46:05;;;;;;;7.45;3.00;;;10.80;99.90;;;;;;5071806;28;20119;-40
2023/11/16 10:48:32;;;;;;;10.45;3.10;;;10.80;99.90;;;;;;5073985;28;20405;-39
2023/11/16 10:51:00;;;;;;;11.65;3.88;;;10.60;99.90;;;;;;5080587;28;20094;-40
2023/11/16 10:53:33;;;;;;;10.18;3.08;;;10.60;99.90;;;;;;5077837;28;20113;-39
2023/11/16 10:56:07;;;;;;;7.38;3.33;;;10.60;99.90;;;;;;5070298;28;20056;-37
2023/11/16 10:58:40;;;;;;;8.93;3.45;;;10.70;99.90;;;;;;5067920;28;20106;-40
2023/11/16 11:01:12;;;;;;;8.23;2.90;;;10.60;99.90;;;;;;5069704;28;20528;-40
2023/11/16 11:03:44;;;;;;;6.82;3.47;;;10.60;99.90;;;;;;5068727;28;20529;-37
2023/11/16 11:06:22;;;;;;;6.85;3.30;;;10.60;99.90;;;;;;5086897;28;20037;-37
2023/11/16 11:08:53;;;;;;;9.15;2.88;;;10.50;99.90;;;;;;5083121;28;20078;-40
2023/11/16 11:11:24;;;;;;;7.47;3.08;;;10.50;99.90;;;;;;5067766;28;20044;-38
2023/11/16 11:13:57;;;;;;;5.85;2.92;;;10.70;99.90;;;;;;5069475;28;20429;-38
2023/11/16 11:16:29;;;;;;;9.75;3.08;;;10.90;99.90;;;;;;5062796;28;20044;-36
2023/11/16 11:18:57;;;;;;;7.65;3.25;;;11.10;99.90;;;;;;5064635;28;20047;-39
2023/11/16 11:21:30;;;;;;;7.95;2.97;;;11.10;99.90;;;;;;5066795;28;20040;-39
2023/11/16 11:24:08;;;;;;;13.15;3.67;;;11.20;99.90;;;;;;5066242;28;20048;-36
2023/11/16 11:26:43;;;;;;;9.85;3.45;;;11.20;99.90;;;;;;5066663;28;20131;-36
2023/11/16 11:29:12;;;;;;;8.55;3.50;;;11.30;99.90;;;;;;5065504;28;20053;-37
2023/11/16 11:32:00;;;;;;;8.93;3.70;;;11.20;99.90;;;;;;5064547;28;20041;-37
2023/11/16 11:34:32;;;;;;;6.25;2.97;;;11.20;99.90;;;;;;5069519;28;20040;-41
2023/11/16 11:37:01;;;;;;;7.78;3.45;;;11.20;99.90;;;;;;5070486;28;20067;-40
2023/11/16 11:39:41;;;;;;;10.40;3.17;;;11.30;99.90;;;;;;5071535;28;20044;-37
2023/11/16 11:42:10;;;;;;;10.95;3.28;;;11.40;99.90;;;;;;5072470;28;20566;-39
2023/11/16 11:44:39;;;;;;;12.32;3.45;;;11.50;99.90;;;;;;5068295;28;20122;-39
2023/11/16 11:47:08;;;;;;;8.65;2.92;;;11.40;99.90;;;;;;5074574;28;20189;-41
2023/11/16 11:49:35;;;;;;;8.35;3.30;;;11.30;99.90;;;;;;5072069;28;20439;-40
2023/11/16 11:52:03;;;;;;;8.38;3.10;;;11.40;99.90;;;;;;5072910;28;20560;-41
2023/11/16 11:54:40;;;;;;;7.60;3.30;;;11.40;99.90;;;;;;5073786;28;20100;-38
2023/11/16 11:57:07;;;;;;;9.45;3.47;;;11.10;99.90;;;;;;5073022;28;20045;-41
2023/11/16 11:59:36;;;;;;;7.68;3.15;;;11.10;99.90;;;;;;5064926;28;20045;-39
2023/11/16 12:02:07;;;;;;;9.45;3.72;;;11.30;99.90;;;;;;5071400;28;20036;-38
2023/11/16 12:04:35;;;;;;;10.77;3.97;;;11.30;99.90;;;;;;5071027;28;20045;-41
2023/11/16 12:07:22;;;;;;;7.78;3.47;;;11.30;99.90;;;;;;5069446;28;20052;-37
2023/11/16 12:10:08;;;;;;;9.73;3.30;;;11.30;99.90;;;;;;5066135;28;20133;-37
2023/11/16 12:13:00;;;;;;;8.70;3.33;;;11.20;99.90;;;;;;5069466;28;20150;-37
2023/11/16 12:15:29;;;;;;;9.85;3.25;;;10.90;99.90;;;;;;5064650;28;20032;-37
2023/11/16 12:17:58;;;;;;;7.78;3.25;;;10.60;99.90;;;;;;5068872;28;20143;-40
2023/11/16 12:20:27;;;;;;;6.82;3.10;;;10.60;99.90;;;;;;5055999;28;20055;-37
2023/11/16 12:22:54;;;;;;;9.50;3.40;;;10.70;99.90;;;;;;5077884;28;20039;-40
2023/11/16 12:25:21;;;;;;;10.13;2.95;;;10.70;99.90;;;;;;5071909;28;20052;-37
2023/11/16 12:27:51;;;;;;;5.13;2.95;;;10.50;99.90;;;;;;5067078;28;20496;-39
2023/11/16 12:30:18;;;;;;;9.38;3.33;;;10.30;99.90;;;;;;5073435;28;20131;-39
2023/11/16 12:32:45;;;;;;;7.95;3.08;;;10.20;99.90;;;;;;5070424;28;20049;-41
2023/11/16 12:35:14;;;;;;;7.22;3.17;;;10.20;99.90;;;;;;5068596;28;20048;-40
2023/11/16 12:37:42;;;;;;;10.40;3.70;;;10.20;99.90;;;;;;5069031;28;20102;-37
2023/11/16 12:40:20;;;;;;;7.38;3.40;;;10.20;99.90;;;;;;5071561;28;20040;-37
2023/11/16 12:42:50;;;;;;;7.53;2.95;;;10.30;99.90;;;;;;5071065;28;20437;-38
2023/11/16 12:45:18;;;;;;;8.15;3.00;;;10.20;99.90;;;;;;5067809;28;20033;-37
2023/11/16 12:47:45;;;;;;;8.75;2.80;;;10.20;99.90;;;;;;5070518;28;20052;-41
2023/11/16 12:50:14;;;;;;;9.38;3.22;;;10.10;99.90;;;;;;5068877;28;20127;-37
2023/11/16 12:52:41;;;;;;;11.50;4.20;;;10.00;99.90;;;;;;5051612;28;20056;-36
2023/11/16 12:55:12;;;;;;;7.25;3.05;;;9.90;99.90;;;;;;5072866;28;20048;-40
2023/11/16 12:57:46;;;;;;;6.57;3.63;;;9.90;99.90;;;;;;5072155;28;20036;-40
2023/11/16 13:00:17;;;;;;;7.35;3.05;;;9.90;99.90;;;;;;5069621;28;20060;-41
2023/11/16 13:02:46;;;;;;;12.30;3.60;;;10.00;99.90;;;;;;5071364;28;20044;-38
2023/11/16 13:05:18;;;;;;;9.25;3.95;;;10.00;99.90;;;;;;5070348;28;20520;-38